^^
Station Historical Data
Daily Summary for January 15, 2017 Units:  Metric    English   Both
« Previous Day
Next Day »
Daily Weekly Monthly Yearly Custom
  High: Low: Average:
Temperature: 34 °C 19.2 °C 24.6 °C
Dew Point: 10.3 °C -1.1 °C 5.4 °C
Humidity: 48% 11% 31%
Wind Speed: 37km/h 6.4km/h 18.3km/h
Wind Gust: 45.1km/h - -
Wind- - SSW
Pressure: 1007 hPa 1003.6 hPa -
Precipitation: 0 mm    
Historical Graphs
 
 
Tabular Data for January 15, 2017
Time Temperature Dew Point Pressure Wind Wind Speed Wind Gust Humidity Rainfall Rate (Hourly) solar Conditions
00:04 24.4 °C 3.7 °C 1004.6 hPa South 19.5 km/h 20.9 km/h 26% 0 mm 0.0 W/m2
00:09 24.3 °C 3.6 °C 1004.6 hPa South 13 km/h 22.5 km/h 26% 0 mm 0.0 W/m2
00:19 24.2 °C 3.5 °C 1004.6 hPa SSW 19.5 km/h 27.4 km/h 26% 0 mm 0.0 W/m2
00:30 24 °C 3.3 °C 1004.6 hPa South 14.3 km/h 24.1 km/h 26% 0 mm 0.0 W/m2
00:36 23.9 °C 2.7 °C 1004.6 hPa South 20.9 km/h 24.1 km/h 25% 0 mm 0.0 W/m2
00:44 23.8 °C 2 °C 1004.6 hPa SSW 16.3 km/h 22.5 km/h 24% 0 mm 0.0 W/m2
00:54 23.7 °C 2.5 °C 1004.6 hPa South 14.3 km/h 19.3 km/h 25% 0 mm 0.0 W/m2
00:59 23.6 °C 2.4 °C 1004.6 hPa South 16.3 km/h 22.5 km/h 25% 0 mm 0.0 W/m2
01:04 23.6 °C 2.4 °C 1004.6 hPa SSW 20.9 km/h 20.9 km/h 25% 0 mm 0.0 W/m2
01:09 23.5 °C 2.3 °C 1004.6 hPa South 19.5 km/h 24.1 km/h 25% 0 mm 0.0 W/m2
01:14 23.5 °C 2.3 °C 1004.6 hPa SSW 17.7 km/h 22.5 km/h 25% 0 mm 0.0 W/m2
01:19 23.5 °C 2.3 °C 1004.6 hPa SSW 16.3 km/h 22.5 km/h 25% 0 mm 0.0 W/m2
01:24 23.5 °C 1.8 °C 1004.6 hPa SSW 16.3 km/h 20.9 km/h 24% 0 mm 0.0 W/m2
01:30 23.4 °C 1.7 °C 1004.6 hPa SSW 9.7 km/h 17.7 km/h 24% 0 mm 0.0 W/m2
01:40 23.1 °C 2.5 °C 1004.6 hPa SSW 9.7 km/h 12.9 km/h 26% 0 mm 0.0 W/m2
01:45 22.9 °C 2.9 °C 1004.6 hPa SSW 9.7 km/h 12.9 km/h 27% 0 mm 0.0 W/m2
01:50 22.8 °C 2.8 °C 1004.6 hPa SSW 11.1 km/h 11.3 km/h 27% 0 mm 0.0 W/m2
02:00 22.6 °C 2.7 °C 1004.6 hPa SSW 13 km/h 13 km/h 27% 0 mm 0.0 W/m2
02:06 22.5 °C 2.6 °C 1004.6 hPa SSW 9.7 km/h 11.3 km/h 27% 0 mm 0.0 W/m2
02:15 22.3 °C 1.9 °C 1004.6 hPa SSW 13 km/h 13 km/h 26% 0 mm 0.0 W/m2
02:20 22.3 °C 1.9 °C 1004.6 hPa SSW 14.3 km/h 14.5 km/h 26% 0 mm 0.0 W/m2
02:25 22.3 °C 1.9 °C 1004.6 hPa SSW 14.3 km/h 16.1 km/h 26% 0 mm 0.0 W/m2
02:30 22.3 °C 1.9 °C 1004.6 hPa SSW 6.4 km/h 16.1 km/h 26% 0 mm 0.0 W/m2
02:40 22.2 °C 3.3 °C 1004.6 hPa SSW 11.1 km/h 16.1 km/h 29% 0 mm 0.0 W/m2
02:45 22.1 °C 3.7 °C 1004.6 hPa SSW 13 km/h 16.1 km/h 30% 0 mm 0.0 W/m2
02:50 21.9 °C 4 °C 1004.6 hPa SSW 16.3 km/h 19.3 km/h 31% 0 mm 0.0 W/m2
02:55 21.9 °C 4.5 °C 1004.6 hPa SSW 13 km/h 16.1 km/h 32% 0 mm 0.0 W/m2
03:00 21.9 °C 4.9 °C 1004.6 hPa SSW 13 km/h 16.1 km/h 33% 0 mm 0.0 W/m2
03:05 21.8 °C 4.8 °C 1004.6 hPa SSW 14.3 km/h 16.1 km/h 33% 0 mm 0.0 W/m2
03:10 21.7 °C 5.2 °C 1004.6 hPa SSW 13 km/h 14.5 km/h 34% 0 mm 0.0 W/m2
03:15 21.6 °C 5.5 °C 1004.6 hPa SSW 11.1 km/h 14.5 km/h 35% 0 mm 0.0 W/m2
03:21 21.4 °C 6.1 °C 1004.6 hPa SSW 9.7 km/h 12.9 km/h 37% 0 mm 0.0 W/m2
03:25 21.2 °C 6.7 °C 1004.6 hPa SSW 11.1 km/h 14.5 km/h 39% 0 mm 0.0 W/m2
03:30 21.1 °C 6.2 °C 1004.6 hPa SSW 14.3 km/h 16.1 km/h 38% 0 mm 0.0 W/m2
03:35 21.1 °C 6.2 °C 1004.6 hPa SSW 14.3 km/h 14.5 km/h 38% 0 mm 0.0 W/m2
03:40 21 °C 5.8 °C 1004.6 hPa SSW 11.1 km/h 19.3 km/h 37% 0 mm 0.0 W/m2
03:51 20.9 °C 6 °C 1004.3 hPa SSW 11.1 km/h 14.5 km/h 38% 0 mm 0.0 W/m2
03:56 20.8 °C 6 °C 1004.3 hPa SSW 11.1 km/h 14.5 km/h 38% 0 mm 0.0 W/m2
04:06 20.7 °C 5.9 °C 1004.3 hPa SSW 14.3 km/h 14.5 km/h 38% 0 mm 0.0 W/m2
04:16 20.6 °C 5.8 °C 1004.3 hPa SSW 13 km/h 17.7 km/h 38% 0 mm 0.0 W/m2
04:26 20.4 °C 5.6 °C 1004.3 hPa SSW 13 km/h 16.1 km/h 38% 0 mm 0.0 W/m2
04:31 20.4 °C 5.6 °C 1004.3 hPa SSW 13 km/h 14.5 km/h 38% 0 mm 0.0 W/m2
04:41 20.2 °C 5.8 °C 1004.6 hPa SSW 11.1 km/h 16.1 km/h 39% 0 mm 0.0 W/m2
04:46 20.1 °C 5.7 °C 1004.6 hPa SSW 13 km/h 14.5 km/h 39% 0 mm 0.0 W/m2
04:56 20 °C 5.6 °C 1004.6 hPa SSW 13 km/h 14.5 km/h 39% 0 mm 0.0 W/m2
05:01 19.9 °C 5.5 °C 1004.6 hPa SSW 14.3 km/h 17.7 km/h 39% 0 mm 0.0 W/m2
05:06 19.9 °C 5.5 °C 1004.6 hPa SSW 14.3 km/h 16.1 km/h 39% 0 mm 0.0 W/m2
05:11 19.8 °C 5.8 °C 1004.6 hPa SSW 14.3 km/h 16.1 km/h 40% 0 mm 0.0 W/m2
05:16 19.7 °C 5.7 °C 1004.6 hPa SSW 11.1 km/h 14.5 km/h 40% 0 mm 0.0 W/m2
05:21 19.7 °C 5.7 °C 1004.6 hPa SSW 11.1 km/h 14.5 km/h 40% 0 mm 0.0 W/m2
05:26 19.6 °C 5.6 °C 1004.6 hPa SSW 13 km/h 13 km/h 40% 0 mm 0.0 W/m2
05:31 19.6 °C 5.6 °C 1004.6 hPa SSW 13 km/h 14.5 km/h 40% 0 mm 0.0 W/m2
05:36 19.5 °C 5.5 °C 1004.6 hPa SSW 14.3 km/h 14.5 km/h 40% 0 mm 0.0 W/m2
05:41 19.4 °C 5.5 °C 1004.6 hPa SSW 13 km/h 17.7 km/h 40% 0 mm 0.0 W/m2
05:46 19.4 °C 5.8 °C 1004.6 hPa SSW 11.1 km/h 16.1 km/h 41% 0 mm 0.0 W/m2
05:52 19.4 °C 5.8 °C 1004.6 hPa SSW 16.3 km/h 17.7 km/h 41% 0 mm 0.0 W/m2
06:01 19.3 °C 5.4 °C 1005 hPa SW 16.3 km/h 16.3 km/h 40% 0 mm 0.0 W/m2
06:11 19.2 °C 5.6 °C 1005 hPa SW 13 km/h 14.5 km/h 41% 0 mm 7.0 W/m2
06:16 19.2 °C 5.6 °C 1005 hPa SSW 11.1 km/h 16.1 km/h 41% 0 mm 11.0 W/m2
06:21 19.2 °C 5.3 °C 1005 hPa SSW 13 km/h 16.1 km/h 40% 0 mm 14.0 W/m2
06:26 19.2 °C 5.3 °C 1005 hPa SW 13 km/h 14.5 km/h 40% 0 mm 18.0 W/m2
06:31 19.2 °C 5.6 °C 1005.3 hPa SW 14.3 km/h 16.1 km/h 41% 0 mm 23.0 W/m2
06:37 19.3 °C 5.7 °C 1005 hPa SW 11.1 km/h 16.1 km/h 41% 0 mm 32.0 W/m2
06:48 19.4 °C 5.8 °C 1005.3 hPa SW 19.5 km/h 19.5 km/h 41% 0 mm 56.0 W/m2
06:54 19.5 °C 5.9 °C 1005.3 hPa SW 16.3 km/h 16.3 km/h 41% 0 mm 72.0 W/m2
07:05 19.7 °C 6.1 °C 1005.3 hPa SW 14.3 km/h 17.7 km/h 41% 0 mm 107.0 W/m2
07:17 19.9 °C 6.3 °C 1005.6 hPa SW 11.1 km/h 19.3 km/h 41% 0 mm 144.0 W/m2
07:32 20.2 °C 6.2 °C 1005.6 hPa SW 16.3 km/h 20.9 km/h 40% 0 mm 213.0 W/m2
07:47 20.7 °C 5.9 °C 1006 hPa SW 14.3 km/h 20.9 km/h 38% 0 mm 271.0 W/m2
08:17 21.4 °C 5.7 °C 1006 hPa SW 17.7 km/h 24.1 km/h 36% 0 mm 396.0 W/m2
08:48 22.2 °C 6.4 °C 1006.3 hPa SW 24.1 km/h 27.4 km/h 36% 0 mm 478.0 W/m2
09:01 22.6 °C 6.4 °C 1006 hPa SSW 22.7 km/h 25.7 km/h 35% 0 mm 547.0 W/m2
09:13 22.9 °C 6.2 °C 1006.3 hPa SSW 19.5 km/h 24.1 km/h 34% 0 mm 636.0 W/m2
09:29 23.5 °C 6.3 °C 1006.3 hPa SW 20.9 km/h 27.4 km/h 33% 0 mm 654.0 W/m2
09:44 23.9 °C 6.2 °C 1006.3 hPa SSW 20.9 km/h 27.4 km/h 32% 0 mm 800.0 W/m2
10:00 24.6 °C 5.9 °C 1006 hPa SW 17.7 km/h 29 km/h 30% 0 mm 445.0 W/m2
10:20 25.3 °C 6 °C 1006 hPa SSW 25.9 km/h 29 km/h 29% 0 mm 796.0 W/m2
10:32 26.1 °C 6.2 °C 1006 hPa SW 16.3 km/h 24.1 km/h 28% 0 mm 802.0 W/m2
10:41 26.7 °C 5.6 °C 1006 hPa SW 22.7 km/h 27.4 km/h 26% 0 mm 823.0 W/m2
10:53 26.9 °C 5.8 °C 1006 hPa SW 17.7 km/h 27.4 km/h 26% 0 mm 846.0 W/m2
11:07 27.6 °C 5.2 °C 1006 hPa SW 20.9 km/h 27.4 km/h 24% 0 mm 875.0 W/m2
11:14 28.4 °C 5.3 °C 1005.6 hPa SW 19.5 km/h 25.7 km/h 23% 0 mm 893.0 W/m2
11:23 29 °C 5.1 °C 1005.6 hPa SSW 19.5 km/h 25.7 km/h 22% 0 mm 911.0 W/m2
11:28 29.2 °C 3.9 °C 1005.6 hPa SSW 20.9 km/h 20.9 km/h 20% 0 mm 921.0 W/m2
11:33 29.5 °C 4.2 °C 1005.6 hPa SW 20.9 km/h 29 km/h 20% 0 mm 928.0 W/m2
11:49 29.9 °C 4.5 °C 1005.6 hPa SW 19.5 km/h 27.4 km/h 20% 0 mm 949.0 W/m2
11:56 30.1 °C 4.7 °C 1005.6 hPa SSW 17.7 km/h 29 km/h 20% 0 mm 953.0 W/m2
12:02 30.2 °C 4 °C 1005.6 hPa SSW 14.3 km/h 29 km/h 19% 0 mm 962.0 W/m2
12:14 30.8 °C 4.5 °C 1005.6 hPa SSW 20.9 km/h 32.2 km/h 19% 0 mm 969.0 W/m2
12:28 31.4 °C 3.4 °C 1005.6 hPa SSW 28.8 km/h 29 km/h 17% 0 mm 977.0 W/m2
13:45 32.6 °C 2.6 °C 1005.3 hPa SSW 22.7 km/h 30.6 km/h 15% 0 mm 974.0 W/m2
14:01 32.6 °C 2.6 °C 1005 hPa SSW 25.9 km/h 32.2 km/h 15% 0 mm 972.0 W/m2
14:16 33.1 °C 2 °C 1005 hPa SSW 28.8 km/h 32.2 km/h 14% 0 mm 953.0 W/m2
14:44 33.6 °C 0.3 °C 1005 hPa South 20.9 km/h 33.8 km/h 12% 0 mm 904.0 W/m2
14:59 33.4 °C -1.1 °C 1004.6 hPa South 24.1 km/h 30.6 km/h 11% 0 mm 879.0 W/m2
15:30 33.9 °C -0.7 °C 1004.6 hPa SSW 19.5 km/h 35.4 km/h 11% 0 mm 810.0 W/m2
15:45 34 °C 0.6 °C 1004.6 hPa SSW 25.9 km/h 29 km/h 12% 0 mm 773.0 W/m2
15:59 34 °C 1.7 °C 1004.3 hPa SSW 28.8 km/h 32.2 km/h 13% 0 mm 731.0 W/m2
16:14 34 °C 2.7 °C 1004.3 hPa South 19.5 km/h 35.4 km/h 14% 0 mm 693.0 W/m2
16:26 33.9 °C 2.7 °C 1003.9 hPa SSW 24.1 km/h 37 km/h 14% 0 mm 647.0 W/m2
16:34 33.8 °C 3.6 °C 1003.9 hPa SSW 28.8 km/h 37 km/h 15% 0 mm 612.0 W/m2
16:39 33.7 °C 4.4 °C 1003.9 hPa SSW 28.8 km/h 32.2 km/h 16% 0 mm 599.0 W/m2
16:49 33.6 °C 5.2 °C 1003.9 hPa SSW 24.1 km/h 38.6 km/h 17% 0 mm 566.0 W/m2
17:00 33.1 °C 5.6 °C 1003.9 hPa SSE 24.1 km/h 37 km/h 18% 0 mm 531.0 W/m2
17:07 33.2 °C 5.7 °C 1003.6 hPa SSW 19.5 km/h 43.5 km/h 18% 0 mm 515.0 W/m2
17:19 33 °C 6.3 °C 1003.6 hPa SSW 30.6 km/h 38.6 km/h 19% 0 mm 478.0 W/m2
17:30 32.9 °C 7 °C 1003.9 hPa South 25.9 km/h 35.4 km/h 20% 0 mm 443.0 W/m2
17:45 32.6 °C 7.4 °C 1003.6 hPa South 37 km/h 45.1 km/h 21% 0 mm 390.0 W/m2
18:25 31.7 °C 8 °C 1003.9 hPa South 27.4 km/h 38.6 km/h 23% 0 mm 250.0 W/m2
18:39 30.9 °C 8.6 °C 1003.9 hPa South 27.4 km/h 40.2 km/h 25% 0 mm 185.0 W/m2
18:50 30.6 °C 8.9 °C 1003.9 hPa South 27.4 km/h 29 km/h 26% 0 mm 141.0 W/m2
19:06 30.2 °C 9.1 °C 1004.3 hPa SSW 27.4 km/h 35.4 km/h 27% 0 mm 83.0 W/m2
19:21 29.5 °C 9.1 °C 1004.6 hPa SSW 33.8 km/h 37 km/h 28% 0 mm 28.0 W/m2
19:35 28.9 °C 9.1 °C 1004.6 hPa South 20.9 km/h 35.4 km/h 29% 0 mm 14.0 W/m2
20:16 27.4 °C 8.8 °C 1005.3 hPa South 33.8 km/h 35.4 km/h 31% 0 mm 0.0 W/m2
20:32 26.9 °C 8.3 °C 1005.6 hPa South 28.8 km/h 32.2 km/h 31% 0 mm 0.0 W/m2
20:46 26.4 °C 7.9 °C 1005.6 hPa South 24.1 km/h 32.2 km/h 31% 0 mm 0.0 W/m2
21:14 25.4 °C 8.8 °C 1006 hPa South 19.5 km/h 27.4 km/h 35% 0 mm 0.0 W/m2
21:25 25.2 °C 8.2 °C 1006 hPa SSW 24.1 km/h 33.8 km/h 34% 0 mm 0.0 W/m2
21:35 25 °C 8.5 °C 1006 hPa South 25.9 km/h 32.2 km/h 35% 0 mm 0.0 W/m2
21:48 24.7 °C 9.4 °C 1006 hPa South 24.1 km/h 29 km/h 38% 0 mm 0.0 W/m2
22:03 24.3 °C 9.1 °C 1006.3 hPa South 20.9 km/h 32.2 km/h 38% 0 mm 0.0 W/m2
22:18 24.1 °C 8.5 °C 1006.3 hPa South 14.3 km/h 27.4 km/h 37% 0 mm 0.0 W/m2
22:32 23.8 °C 8.2 °C 1006.3 hPa South 25.9 km/h 35.4 km/h 37% 0 mm 0.0 W/m2
22:54 23.1 °C 9.1 °C 1006.7 hPa South 32 km/h 32.2 km/h 41% 0 mm 0.0 W/m2
23:01 22.9 °C 9.3 °C 1006.7 hPa South 30.6 km/h 38.6 km/h 42% 0 mm 0.0 W/m2
23:06 22.8 °C 9.6 °C 1006.7 hPa South 25.9 km/h 32.2 km/h 43% 0 mm 0.0 W/m2
23:11 22.6 °C 9.7 °C 1006.7 hPa South 14.3 km/h 30.6 km/h 44% 0 mm 0.0 W/m2
23:17 22.4 °C 9.9 °C 1007 hPa South 22.7 km/h 27.4 km/h 45% 0 mm 0.0 W/m2
23:26 22.2 °C 10 °C 1007 hPa SSW 17.7 km/h 27.4 km/h 46% 0 mm 0.0 W/m2
23:31 22.1 °C 10.3 °C 1007 hPa South 17.7 km/h 25.7 km/h 47% 0 mm 0.0 W/m2
23:37 22.1 °C 10.3 °C 1007 hPa SSW 19.5 km/h 29 km/h 47% 0 mm 0.0 W/m2
23:51 21.8 °C 10.3 °C 1007 hPa South 24.1 km/h 33.8 km/h 48% 0 mm 0.0 W/m2
23:56 21.7 °C 10.2 °C 1007 hPa South 22.7 km/h 30.6 km/h 48% 0 mm 0.0 W/m2
Canyon Roadhouse, Fishriver Canyon, Namibia
Compliments of Weather Underground - 2.25 mb